Time;durP1;ratioP1;P1;durP2;ratioP2;P2;SDS_P1;SDS_P2;PMS_P1;PMS_P2;Temp;Humidity;BMP_temperature;BMP_pressure;BME280_temperature;BME280_humidity;BME280_pressure;Samples;Min_cycle;Max_cycle;Signal;HPM_P1;HPM_P2
2021/05/27 00:01:24;;;;;;;;;;;;;;;14.37;92.68;99667.81;3483186;28;20405;-45
2021/05/27 00:03:07;;;;;;;;;;;;;;;14.40;92.67;99662.59;3483217;28;19932;-42
2021/05/27 00:04:47;;;;;;;;;;;;;;;14.41;92.68;99662.59;3483536;28;20340;-42
2021/05/27 00:06:29;;;;;;;;;;;;;;;14.44;92.74;99659.97;3482662;28;19936;-42
2021/05/27 00:08:12;;;;;;;;;;;;;;;14.48;92.90;99666.06;3483795;28;19929;-42
2021/05/27 00:09:53;;;;;;;;;;;;;;;14.50;93.07;99666.06;3482643;28;20321;-41
2021/05/27 00:11:34;;;;;;;;;;;;;;;14.51;93.17;99660.84;3483635;28;19940;-46
2021/05/27 00:13:15;;;;;;;;;;;;;;;14.52;93.27;99665.19;3481758;28;19948;-42
2021/05/27 00:14:57;;;;;;;;;;;;;;;14.53;93.37;99663.44;3482773;28;20275;-42
2021/05/27 00:16:38;;;;;;;;;;;;;;;14.52;93.51;99656.47;3483260;28;19964;-42
2021/05/27 00:18:19;;;;;;;;;;;;;;;14.51;93.79;99657.38;3482360;28;19937;-42
2021/05/27 00:20:00;;;;;;;;;;;;;;;14.49;94.09;99654.75;3483858;28;19959;-42
2021/05/27 00:21:42;;;;;;;;;;;;;;;14.49;94.25;99659.97;3482422;28;20479;-42
2021/05/27 00:23:23;;;;;;;;;;;;;;;14.50;94.46;99658.22;3483355;28;19983;-42
2021/05/27 00:25:04;;;;;;;;;;;;;;;14.51;94.43;99657.38;3482906;28;19936;-42
2021/05/27 00:26:52;;;;;;;;;;;;;;;14.51;94.56;99654.75;3482934;28;20012;-42
2021/05/27 00:28:34;;;;;;;;;;;;;;;14.53;94.78;99659.09;3483295;28;20394;-42
2021/05/27 00:30:16;;;;;;;;;;;;;;;14.55;94.70;99653.84;3482345;28;19979;-42
2021/05/27 00:31:57;;;;;;;;;;;;;;;14.57;94.68;99654.72;3483735;28;19929;-42
2021/05/27 00:33:38;;;;;;;;;;;;;;;14.57;94.48;99650.38;3482641;28;19968;-43
2021/05/27 00:35:19;;;;;;;;;;;;;;;14.57;94.38;99650.38;3483150;28;20424;-43
2021/05/27 00:37:01;;;;;;;;;;;;;;;14.58;94.57;99651.25;3482450;28;19929;-42
2021/05/27 00:38:42;;;;;;;;;;;;;;;14.57;94.58;99654.72;3482928;28;19940;-45
2021/05/27 00:40:24;;;;;;;;;;;;;;;14.55;94.46;99649.50;3483791;28;19983;-45
2021/05/27 00:42:05;;;;;;;;;;;;;;;14.53;94.61;99656.47;3482406;28;19967;-46
2021/05/27 00:43:46;;;;;;;;;;;;;;;14.52;94.62;99646.03;3483421;28;19968;-45
2021/05/27 00:45:27;;;;;;;;;;;;;;;14.52;94.95;99646.03;3482365;28;19967;-46
2021/05/27 00:47:10;;;;;;;;;;;;;;;14.52;95.05;99646.91;3482886;28;19935;-45
2021/05/27 00:48:58;;;;;;;;;;;;;;;14.54;94.98;99653.00;3482332;28;20027;-46
2021/05/27 00:50:39;;;;;;;;;;;;;;;14.55;95.04;99648.63;3482575;28;20019;-42
2021/05/27 00:52:21;;;;;;;;;;;;;;;14.54;94.85;99653.00;3483209;28;20370;-46
2021/05/27 00:54:02;;;;;;;;;;;;;;;14.54;94.75;99642.56;3482268;28;19983;-42
2021/05/27 00:55:44;;;;;;;;;;;;;;;14.56;94.66;99647.78;3483330;28;19999;-42
2021/05/27 00:57:30;;;;;;;;;;;;;;;14.55;94.70;99644.28;3481745;28;19929;-43
2021/05/27 00:59:11;;;;;;;;;;;;;;;14.55;94.53;99646.88;3483290;28;19968;-42
2021/05/27 01:00:52;;;;;;;;;;;;;;;14.54;94.37;99641.69;3482873;28;19932;-42
2021/05/27 01:02:34;;;;;;;;;;;;;;;14.53;94.53;99645.16;3482309;28;19980;-42
2021/05/27 01:04:15;;;;;;;;;;;;;;;14.53;94.41;99647.78;3482846;28;20027;-42
2021/05/27 01:05:56;;;;;;;;;;;;;;;14.54;94.69;99644.31;3482391;28;19936;-42
2021/05/27 01:07:38;;;;;;;;;;;;;;;14.54;94.58;99642.56;3482852;28;19979;-42
2021/05/27 01:09:19;;;;;;;;;;;;;;;14.54;94.59;99647.78;3482777;28;19935;-42
2021/05/27 01:11:01;;;;;;;;;;;;;;;14.54;94.53;99646.91;3482384;28;19936;-42
2021/05/27 01:12:42;;;;;;;;;;;;;;;14.53;94.46;99643.41;3483028;28;19929;-46
2021/05/27 01:16:19;;;;;;;;;;;;;;;14.54;94.42;99647.78;3482294;28;19979;-45
2021/05/27 01:18:02;;;;;;;;;;;;;;;14.53;94.01;99646.03;3482178;28;19932;-45
2021/05/27 01:19:43;;;;;;;;;;;;;;;14.55;94.31;99640.81;3482478;28;20469;-45
2021/05/27 01:21:25;;;;;;;;;;;;;;;14.54;94.15;99639.09;3482388;28;19984;-46
2021/05/27 01:23:09;;;;;;;;;;;;;;;14.54;94.22;99644.31;3482198;28;19929;-45
2021/05/27 01:24:50;;;;;;;;;;;;;;;14.51;94.25;99642.56;3482238;28;19964;-46
2021/05/27 01:26:31;;;;;;;;;;;;;;;14.52;94.35;99646.91;3481581;28;19978;-45
2021/05/27 01:28:13;;;;;;;;;;;;;;;14.52;94.57;99638.19;3483082;28;20307;-42
2021/05/27 01:29:54;;;;;;;;;;;;;;;14.54;94.64;99641.69;3481847;28;20370;-43
2021/05/27 01:31:35;;;;;;;;;;;;;;;14.53;94.27;99639.94;3482582;28;19974;-46
2021/05/27 01:33:18;;;;;;;;;;;;;;;14.54;94.35;99647.78;3482259;28;19972;-45
2021/05/27 01:34:59;;;;;;;;;;;;;;;14.54;94.26;99644.31;3482401;28;19929;-43
2021/05/27 01:36:43;;;;;;;;;;;;;;;14.55;94.28;99652.09;3481736;28;19936;-43
2021/05/27 01:38:26;;;;;;;;;;;;;;;14.54;94.26;99641.69;3481575;28;20023;-42
2021/05/27 01:40:08;;;;;;;;;;;;;;;14.52;94.26;99646.91;3482900;28;19929;-42
2021/05/27 01:41:50;;;;;;;;;;;;;;;14.53;94.30;99647.78;3481748;28;19935;-42
2021/05/27 01:43:31;;;;;;;;;;;;;;;14.52;94.33;99641.69;3482144;28;19975;-42
2021/05/27 01:45:13;;;;;;;;;;;;;;;14.53;94.40;99645.16;3482242;28;20377;-42
2021/05/27 01:46:54;;;;;;;;;;;;;;;14.52;94.30;99648.63;3481579;28;20416;-42
2021/05/27 01:48:35;;;;;;;;;;;;;;;14.51;94.33;99645.16;3481976;28;19964;-42
2021/05/27 01:50:20;;;;;;;;;;;;;;;14.52;94.50;99648.63;3481666;28;19979;-42
2021/05/27 01:52:01;;;;;;;;;;;;;;;14.51;94.47;99637.34;3482745;28;20317;-42
2021/05/27 01:53:43;;;;;;;;;;;;;;;14.53;94.44;99637.34;3481525;28;19980;-43
2021/05/27 01:55:25;;;;;;;;;;;;;;;14.52;94.49;99633.88;3481930;28;19975;-42
2021/05/27 01:57:06;;;;;;;;;;;;;;;14.54;94.30;99641.69;3482251;28;20429;-42
2021/05/27 01:58:47;;;;;;;;;;;;;;;14.56;94.48;99640.81;3481790;28;19983;-42
2021/05/27 02:00:29;;;;;;;;;;;;;;;14.57;94.49;99641.66;3482481;28;20358;-42
2021/05/27 02:02:10;;;;;;;;;;;;;;;14.58;94.47;99643.41;3481373;28;19987;-43
2021/05/27 02:03:52;;;;;;;;;;;;;;;14.58;94.59;99638.19;3482847;28;19936;-43
2021/05/27 02:05:33;;;;;;;;;;;;;;;14.58;94.56;99633.84;3482041;28;19987;-42
2021/05/27 02:07:14;;;;;;;;;;;;;;;14.59;94.85;99632.13;3481996;28;19940;-42
2021/05/27 02:09:09;;;;;;;;;;;;;;;14.60;94.90;99633.84;3482322;28;20099;-42
2021/05/27 02:10:50;;;;;;;;;;;;;;;14.59;95.09;99632.97;3481989;28;19972;-43
2021/05/27 02:12:31;;;;;;;;;;;;;;;14.60;95.04;99631.22;3482900;28;19929;-43
2021/05/27 02:14:13;;;;;;;;;;;;;;;14.61;95.27;99638.19;3479805;28;19929;-43
2021/05/27 02:15:55;;;;;;;;;;;;;;;14.62;95.34;99635.59;3482321;28;19929;-46
2021/05/27 02:17:36;;;;;;;;;;;;;;;14.63;95.25;99633.84;3482200;28;20056;-43
2021/05/27 02:19:18;;;;;;;;;;;;;;;14.64;95.08;99635.56;3481581;28;19933;-43
2021/05/27 02:20:59;;;;;;;;;;;;;;;14.65;95.25;99638.16;3483067;28;20036;-43
2021/05/27 02:22:40;;;;;;;;;;;;;;;14.67;94.97;99629.47;3481243;28;19933;-42
2021/05/27 02:24:22;;;;;;;;;;;;;;;14.68;94.87;99634.69;3482733;28;19928;-46
2021/05/27 02:26:03;;;;;;;;;;;;;;;14.69;95.08;99630.31;3479699;28;20033;-45
2021/05/27 02:27:44;;;;;;;;;;;;;;;14.70;95.15;99632.06;3482043;28;20040;-45
2021/05/27 02:29:25;;;;;;;;;;;;;;;14.70;95.00;99630.31;3481737;28;20357;-42
2021/05/27 02:31:06;;;;;;;;;;;;;;;14.71;94.90;99629.47;3481853;28;20423;-42
2021/05/27 02:32:48;;;;;;;;;;;;;;;14.72;94.88;99622.50;3482193;28;19940;-43
2021/05/27 02:34:29;;;;;;;;;;;;;;;14.73;95.02;99626.81;3481711;28;19928;-43
2021/05/27 02:36:10;;;;;;;;;;;;;;;14.75;94.86;99619.88;3482582;28;19967;-42
2021/05/27 02:37:51;;;;;;;;;;;;;;;14.76;94.82;99617.22;3481656;28;20429;-45
2021/05/27 02:39:33;;;;;;;;;;;;;;;14.80;94.77;99625.91;3482300;28;19972;-45
2021/05/27 02:41:15;;;;;;;;;;;;;;;14.81;94.80;99633.75;3479983;28;19931;-45
2021/05/27 02:42:56;;;;;;;;;;;;;;;14.84;94.88;99620.69;3481742;28;20011;-45
2021/05/27 02:44:37;;;;;;;;;;;;;;;14.88;94.97;99618.94;3482068;28;19938;-42
2021/05/27 02:46:18;;;;;;;;;;;;;;;14.92;94.74;99623.25;3481023;28;20037;-42
2021/05/27 02:48:05;;;;;;;;;;;;;;;14.95;94.79;99623.25;3482781;28;19933;-46
2021/05/27 02:49:46;;;;;;;;;;;;;;;14.99;94.88;99611.03;3481185;28;19979;-45
2021/05/27 02:51:27;;;;;;;;;;;;;;;15.02;94.85;99622.34;3481787;28;19936;-45
2021/05/27 02:53:08;;;;;;;;;;;;;;;15.07;94.97;99617.09;3481606;28;20385;-43
2021/05/27 02:54:50;;;;;;;;;;;;;;;15.12;94.87;99614.47;3481483;28;19929;-42
2021/05/27 02:56:31;;;;;;;;;;;;;;;15.15;94.93;99617.94;3481231;28;19976;-43
2021/05/27 02:58:12;;;;;;;;;;;;;;;15.19;94.89;99617.03;3481063;28;19968;-42
2021/05/27 02:59:54;;;;;;;;;;;;;;;15.24;94.74;99611.75;3482890;28;19986;-42
2021/05/27 03:01:35;;;;;;;;;;;;;;;15.27;94.55;99613.50;3483346;28;20000;-42
2021/05/27 03:03:17;;;;;;;;;;;;;;;15.29;94.48;99606.50;3484368;28;19984;-42
2021/05/27 03:04:58;;;;;;;;;;;;;;;15.33;94.39;99605.59;3482938;28;19929;-46
2021/05/27 03:06:39;;;;;;;;;;;;;;;15.36;94.24;99606.44;3483520;28;20394;-45
2021/05/27 03:08:20;;;;;;;;;;;;;;;15.38;93.92;99606.44;3483987;28;19937;-45
2021/05/27 03:10:02;;;;;;;;;;;;;;;15.39;93.81;99602.97;3483516;28;20022;-45
2021/05/27 03:11:43;;;;;;;;;;;;;;;15.40;93.57;99608.19;3484573;28;19928;-43
2021/05/27 03:13:25;;;;;;;;;;;;;;;15.44;93.60;99609.03;3481658;28;19955;-42
2021/05/27 03:15:07;;;;;;;;;;;;;;;15.47;93.30;99605.50;3484333;28;19929;-42
2021/05/27 03:16:48;;;;;;;;;;;;;;;15.48;93.40;99607.25;3483069;28;19936;-43
2021/05/27 03:18:30;;;;;;;;;;;;;;;15.51;93.30;99596.78;3483691;28;19991;-42
2021/05/27 03:20:12;;;;;;;;;;;;;;;15.53;93.29;99603.72;3484229;28;20020;-42
2021/05/27 03:21:53;;;;;;;;;;;;;;;15.56;93.23;99606.31;3483283;28;19972;-43
2021/05/27 03:23:34;;;;;;;;;;;;;;;15.61;93.17;99608.91;3483978;28;20043;-42
2021/05/27 03:25:15;;;;;;;;;;;;;;;15.66;93.07;99608.88;3483068;28;19928;-42
2021/05/27 03:26:57;;;;;;;;;;;;;;;15.69;92.92;99608.88;3484501;28;19936;-42
2021/05/27 03:28:39;;;;;;;;;;;;;;;15.73;92.90;99614.03;3483211;28;19979;-42
2021/05/27 03:30:20;;;;;;;;;;;;;;;15.76;92.55;99606.19;3483503;28;20401;-42
2021/05/27 03:32:01;;;;;;;;;;;;;;;15.79;92.59;99606.16;3483842;28;19941;-42
2021/05/27 03:33:42;;;;;;;;;;;;;;;15.83;92.57;99611.38;3483377;28;19960;-43
2021/05/27 03:35:24;;;;;;;;;;;;;;;15.86;92.36;99616.56;3484037;28;19932;-42
2021/05/27 03:37:05;;;;;;;;;;;;;;;15.90;92.22;99608.69;3482841;28;20397;-43
2021/05/27 03:38:46;;;;;;;;;;;;;;;15.97;92.22;99606.88;3484116;28;19964;-43
2021/05/27 03:40:28;;;;;;;;;;;;;;;16.06;92.29;99613.78;3483059;28;19975;-43
2021/05/27 03:42:09;;;;;;;;;;;;;;;16.14;92.08;99610.19;3484036;28;19929;-43
2021/05/27 03:43:50;;;;;;;;;;;;;;;16.18;91.52;99611.03;3483802;28;19929;-42
2021/05/27 03:45:33;;;;;;;;;;;;;;;16.21;91.60;99602.28;3483141;28;19929;-43
2021/05/27 03:47:14;;;;;;;;;;;;;;;16.24;91.41;99594.41;3484268;28;19932;-45
2021/05/27 03:48:55;;;;;;;;;;;;;;;16.27;91.64;99602.22;3483260;28;20063;-46
2021/05/27 03:50:36;;;;;;;;;;;;;;;16.30;91.75;99595.22;3484288;28;19971;-45
2021/05/27 03:52:17;;;;;;;;;;;;;;;16.36;91.64;99599.50;3482915;28;19936;-46
2021/05/27 03:53:58;;;;;;;;;;;;;;;16.39;91.79;99591.63;3483685;28;19929;-45
2021/05/27 03:55:40;;;;;;;;;;;;;;;16.47;91.77;99600.22;3483415;28;19929;-42
2021/05/27 03:57:21;;;;;;;;;;;;;;;16.58;91.73;99596.63;3482876;28;19976;-43
2021/05/27 04:01:02;;;;;;;;;;;;;;;16.80;90.84;99597.28;3483244;28;19929;-47
2021/05/27 04:02:45;;;;;;;;;;;;;;;16.91;90.87;99603.22;3483497;28;19936;-46
2021/05/27 04:08:27;;;;;;;;;;;;;;;17.32;89.42;99601.78;3470386;28;19935;-45
2021/05/27 04:10:09;;;;;;;;;;;;;;;17.42;89.46;99606.00;3481585;28;20390;-46
2021/05/27 04:11:51;;;;;;;;;;;;;;;17.50;89.13;99600.66;3482391;28;20072;-46
2021/05/27 04:13:52;;;;;;;;;;;;;;;17.58;88.89;99601.38;3482475;28;19947;-45
2021/05/27 04:15:35;;;;;;;;;;;;;;;17.65;88.63;99589.03;3482571;28;20358;-46
2021/05/27 04:17:16;;;;;;;;;;;;;;;17.69;88.08;99590.69;3483615;28;20443;-46
2021/05/27 04:18:57;;;;;;;;;;;;;;;17.75;88.00;99590.63;3482833;28;19972;-46
2021/05/27 04:20:39;;;;;;;;;;;;;;;17.82;87.76;99587.00;3483134;28;20520;-45
2021/05/27 04:22:20;;;;;;;;;;;;;;;17.91;87.60;99593.00;3483049;28;19968;-45
2021/05/27 04:24:01;;;;;;;;;;;;;;;18.01;87.13;99586.69;3483135;28;19936;-46
2021/05/27 04:25:42;;;;;;;;;;;;;;;18.09;85.91;99592.66;3483814;28;19955;-43
2021/05/27 04:27:24;;;;;;;;;;;;;;;18.19;84.76;99594.25;3482697;28;19980;-45
2021/05/27 04:29:05;;;;;;;;;;;;;;;18.34;84.42;99586.97;3483790;28;19968;-43
2021/05/27 04:33:01;;;;;;;;;;;;;;;18.56;83.21;99593.53;3482842;28;19994;-44
2021/05/27 04:34:42;;;;;;;;;;;;;;;18.66;81.43;99593.34;3482512;28;20425;-45
2021/05/27 04:36:23;;;;;;;;;;;;;;;18.75;81.72;99596.66;3482519;28;19987;-46
2021/05/27 04:38:05;;;;;;;;;;;;;;;18.86;81.26;99592.94;3483459;28;19932;-46
2021/05/27 04:39:46;;;;;;;;;;;;;;;18.91;79.99;99588.44;3482385;28;19933;-45
2021/05/27 04:41:27;;;;;;;;;;;;;;;18.94;80.06;99591.88;3482786;28;19932;-46
2021/05/27 04:43:09;;;;;;;;;;;;;;;19.00;80.04;99585.63;3482719;28;19929;-46
2021/05/27 04:44:50;;;;;;;;;;;;;;;18.98;78.35;99585.66;3482507;28;19929;-45
2021/05/27 04:46:32;;;;;;;;;;;;;;;18.93;78.35;99597.16;3483063;28;20352;-45
2021/05/27 04:48:15;;;;;;;;;;;;;;;18.86;78.71;99588.56;3482293;28;19979;-45
2021/05/27 04:49:56;;;;;;;;;;;;;;;18.79;78.84;99586.94;3483917;28;19935;-46
2021/05/27 04:51:37;;;;;;;;;;;;;;;18.75;78.79;99590.50;3481861;28;19932;-45
2021/05/27 04:53:19;;;;;;;;;;;;;;;18.71;78.82;99592.34;3482884;28;19976;-46
2021/05/27 04:55:00;;;;;;;;;;;;;;;18.67;79.81;99593.31;3482715;28;20112;-45
2021/05/27 04:56:44;;;;;;;;;;;;;;;18.65;80.26;99588.97;3482349;28;19935;-46
2021/05/27 04:58:26;;;;;;;;;;;;;;;18.63;79.82;99591.66;3482287;28;20405;-46
2021/05/27 05:00:09;;;;;;;;;;;;;;;18.62;79.98;99587.28;3482174;28;19929;-48
2021/05/27 05:01:50;;;;;;;;;;;;;;;18.61;79.03;99591.69;3483266;28;19929;-46
2021/05/27 05:03:31;;;;;;;;;;;;;;;18.56;79.05;99598.78;3482202;28;20123;-46
2021/05/27 05:05:13;;;;;;;;;;;;;;;18.55;79.89;99593.56;3482698;28;19932;-45
2021/05/27 05:06:54;;;;;;;;;;;;;;;18.59;79.77;99592.59;3481888;28;20032;-45
2021/05/27 05:08:35;;;;;;;;;;;;;;;18.62;79.81;99592.53;3482180;28;19935;-46
2021/05/27 05:10:17;;;;;;;;;;;;;;;18.65;79.99;99588.97;3481934;28;19959;-46
2021/05/27 05:11:58;;;;;;;;;;;;;;;18.67;79.86;99595.06;3482320;28;19929;-46
2021/05/27 05:13:40;;;;;;;;;;;;;;;18.69;79.81;99593.28;3481908;28;19929;-45
2021/05/27 05:15:22;;;;;;;;;;;;;;;18.73;79.29;99593.16;3482211;28;19998;-43
2021/05/27 05:17:03;;;;;;;;;;;;;;;18.78;78.61;99587.81;3483105;28;19978;-44
2021/05/27 05:18:44;;;;;;;;;;;;;;;18.79;78.31;99587.78;3482383;28;20494;-43
2021/05/27 05:20:26;;;;;;;;;;;;;;;18.80;78.00;99592.13;3481993;28;20002;-43
2021/05/27 05:22:07;;;;;;;;;;;;;;;18.87;78.07;99592.91;3482932;28;19971;-43
2021/05/27 05:23:48;;;;;;;;;;;;;;;18.91;78.21;99586.69;3480987;28;20358;-43
2021/05/27 05:25:30;;;;;;;;;;;;;;;18.92;78.26;99596.31;3482948;28;20298;-43
2021/05/27 05:27:11;;;;;;;;;;;;;;;18.93;78.41;99591.91;3482253;28;20390;-43
2021/05/27 05:28:53;;;;;;;;;;;;;;;19.01;77.91;99592.59;3482977;28;19971;-44
2021/05/27 05:30:34;;;;;;;;;;;;;;;19.07;76.01;99591.59;3482213;28;20022;-45
2021/05/27 05:32:16;;;;;;;;;;;;;;;19.12;74.95;99590.59;3482540;28;19929;-43
2021/05/27 05:33:57;;;;;;;;;;;;;;;19.24;75.12;99589.47;3483129;28;19971;-44
2021/05/27 05:35:38;;;;;;;;;;;;;;;19.26;74.38;99589.44;3481831;28;20428;-45
2021/05/27 05:37:19;;;;;;;;;;;;;;;19.23;74.45;99581.59;3482999;28;19935;-45
2021/05/27 05:39:00;;;;;;;;;;;;;;;19.21;74.94;99586.88;3481734;28;19972;-45
2021/05/27 05:40:41;;;;;;;;;;;;;;;19.34;74.84;99584.88;3482780;28;19975;-43
2021/05/27 05:42:23;;;;;;;;;;;;;;;19.50;74.45;99577.47;3480955;28;20408;-43
2021/05/27 05:44:05;;;;;;;;;;;;;;;19.58;73.93;99580.75;3481833;28;19995;-43
2021/05/27 05:45:46;;;;;;;;;;;;;;;19.62;73.51;99582.44;3481802;28;20466;-43
2021/05/27 05:47:27;;;;;;;;;;;;;;;19.73;73.53;99577.75;3481618;28;19936;-43
2021/05/27 05:49:08;;;;;;;;;;;;;;;19.89;73.62;99577.41;3483243;28;19982;-43
2021/05/27 05:50:49;;;;;;;;;;;;;;;20.06;72.68;99577.81;3482092;28;19929;-43
2021/05/27 05:52:31;;;;;;;;;;;;;;;20.16;71.19;99578.41;3482733;28;19928;-43
2021/05/27 05:54:12;;;;;;;;;;;;;;;20.14;69.93;99588.13;3482049;28;19988;-43
2021/05/27 05:55:54;;;;;;;;;;;;;;;20.09;69.28;99577.72;3482265;28;19929;-43
2021/05/27 05:57:35;;;;;;;;;;;;;;;19.99;70.23;99580.63;3482544;28;19933;-43
2021/05/27 05:59:17;;;;;;;;;;;;;;;19.90;70.30;99580.00;3481446;28;19929;-42
2021/05/27 06:01:00;;;;;;;;;;;;;;;19.83;70.78;99578.44;3482992;28;19928;-44
2021/05/27 06:02:41;;;;;;;;;;;;;;;19.76;70.83;99580.31;3481605;28;19936;-43
2021/05/27 06:04:22;;;;;;;;;;;;;;;19.74;71.45;99578.59;3482251;28;20348;-45
2021/05/27 06:06:03;;;;;;;;;;;;;;;19.73;71.37;99579.53;3481984;28;19932;-45
2021/05/27 06:07:44;;;;;;;;;;;;;;;19.72;70.85;99575.16;3482082;28;19933;-43
2021/05/27 06:09:26;;;;;;;;;;;;;;;19.79;71.56;99573.22;3482660;28;19987;-44
2021/05/27 06:11:07;;;;;;;;;;;;;;;19.87;71.44;99581.84;3481724;28;19933;-45
2021/05/27 06:12:48;;;;;;;;;;;;;;;19.90;70.85;99581.75;3483003;28;20022;-45
2021/05/27 06:14:32;;;;;;;;;;;;;;;20.02;70.21;99578.78;3480013;28;19964;-44
2021/05/27 06:16:13;;;;;;;;;;;;;;;20.21;70.16;99578.31;3481980;28;20417;-43
2021/05/27 06:17:54;;;;;;;;;;;;;;;20.34;69.49;99577.03;3482265;28;20034;-46
2021/05/27 06:19:35;;;;;;;;;;;;;;;20.44;68.91;99583.78;3481788;28;20407;-44
2021/05/27 06:21:17;;;;;;;;;;;;;;;20.46;67.48;99581.97;3482387;28;19936;-45
2021/05/27 06:22:58;;;;;;;;;;;;;;;20.47;67.85;99578.44;3481613;28;20304;-44
2021/05/27 06:24:39;;;;;;;;;;;;;;;20.64;68.45;99575.34;3483296;28;19971;-44
2021/05/27 06:26:20;;;;;;;;;;;;;;;20.87;67.70;99581.72;3480885;28;19998;-44
2021/05/27 06:28:01;;;;;;;;;;;;;;;21.10;66.05;99585.44;3482975;28;19982;-47
2021/05/27 06:29:43;;;;;;;;;;;;;;;21.27;66.52;99578.72;3481735;28;19984;-45
2021/05/27 06:31:24;;;;;;;;;;;;;;;21.38;66.40;99581.03;3481682;28;19964;-44
2021/05/27 06:33:08;;;;;;;;;;;;;;;21.35;65.46;99585.53;3482473;28;19929;-44
2021/05/27 06:34:52;;;;;;;;;;;;;;;21.18;64.49;99580.78;3481900;28;19968;-44
2021/05/27 06:36:33;;;;;;;;;;;;;;;21.03;66.38;99590.91;3484614;28;19979;-45
2021/05/27 06:38:16;;;;;;;;;;;;;;;20.85;66.37;99587.06;3483890;28;20477;-46
2021/05/27 06:39:56;;;;;;;;;;;;;;;20.68;66.43;99590.16;3484439;28;19959;-46
2021/05/27 06:41:38;;;;;;;;;;;;;;;20.58;67.28;99591.31;3483850;28;19943;-46
2021/05/27 06:43:19;;;;;;;;;;;;;;;20.52;67.53;99595.00;3483803;28;19968;-45
2021/05/27 06:45:00;;;;;;;;;;;;;;;20.47;67.67;99583.72;3484939;28;19936;-44
2021/05/27 06:46:42;;;;;;;;;;;;;;;20.47;67.57;99588.13;3483700;28;20378;-43
2021/05/27 06:48:23;;;;;;;;;;;;;;;20.59;68.51;99587.78;3485145;28;20005;-44
2021/05/27 06:50:04;;;;;;;;;;;;;;;20.77;67.93;99585.56;3483572;28;19951;-46
2021/05/27 06:51:46;;;;;;;;;;;;;;;20.89;66.44;99590.47;3484472;28;19982;-46
2021/05/27 06:53:27;;;;;;;;;;;;;;;21.05;64.98;99585.59;3484546;28;19980;-44
2021/05/27 06:55:10;;;;;;;;;;;;;;;21.23;65.04;99584.16;3484746;28;19935;-46
2021/05/27 06:56:52;;;;;;;;;;;;;;;21.42;64.72;99580.00;3484356;28;19928;-44
2021/05/27 06:58:35;;;;;;;;;;;;;;;21.59;64.26;99582.06;3484164;28;19975;-45
2021/05/27 07:00:20;;;;;;;;;;;;;;;21.63;63.15;99588.19;3485119;28;20424;-47
2021/05/27 07:02:01;;;;;;;;;;;;;;;21.69;62.98;99577.41;3483514;28;19971;-45
2021/05/27 07:03:42;;;;;;;;;;;;;;;21.70;63.39;99578.25;3484275;28;20421;-44
2021/05/27 07:05:24;;;;;;;;;;;;;;;21.58;62.55;99571.59;3484065;28;19928;-44
2021/05/27 07:07:05;;;;;;;;;;;;;;;21.44;62.79;99580.81;3483913;28;20007;-46
2021/05/27 07:08:46;;;;;;;;;;;;;;;21.34;64.40;99583.81;3485157;28;19975;-44
2021/05/27 07:10:29;;;;;;;;;;;;;;;21.35;62.54;99577.63;3483856;28;19933;-46
2021/05/27 07:12:11;;;;;;;;;;;;;;;21.44;63.86;99583.47;3484462;28;19936;-45
2021/05/27 07:13:52;;;;;;;;;;;;;;;21.49;63.19;99575.41;3482858;28;19981;-44
2021/05/27 07:15:35;;;;;;;;;;;;;;;21.60;62.86;99581.19;3483893;28;19929;-44
2021/05/27 07:17:16;;;;;;;;;;;;;;;21.74;62.49;99564.91;3483800;28;19982;-45
2021/05/27 07:18:57;;;;;;;;;;;;;;;21.91;61.90;99566.09;3484610;28;19933;-46
2021/05/27 07:20:39;;;;;;;;;;;;;;;22.11;60.76;99566.28;3485472;28;20029;-44
2021/05/27 07:22:20;;;;;;;;;;;;;;;22.24;60.59;99557.91;3483388;28;19929;-45
2021/05/27 07:24:01;;;;;;;;;;;;;;;22.41;59.70;99563.47;3484328;28;20163;-44
2021/05/27 07:25:42;;;;;;;;;;;;;;;22.59;59.24;99556.66;3483591;28;19983;-44
2021/05/27 07:27:24;;;;;;;;;;;;;;;22.83;59.17;99559.28;3484289;28;19932;-44
2021/05/27 07:29:05;;;;;;;;;;;;;;;23.06;59.79;99556.63;3483892;28;19982;-45
2021/05/27 07:30:47;;;;;;;;;;;;;;;23.28;58.41;99556.63;3483314;28;19929;-45
2021/05/27 07:32:28;;;;;;;;;;;;;;;23.22;56.12;99555.97;3484079;28;20019;-44
2021/05/27 07:34:09;;;;;;;;;;;;;;;23.04;57.48;99557.56;3482962;28;20302;-45
2021/05/27 07:35:50;;;;;;;;;;;;;;;23.05;58.71;99554.88;3484809;28;19928;-46
2021/05/27 07:37:32;;;;;;;;;;;;;;;23.21;57.21;99551.63;3483272;28;19936;-46
2021/05/27 07:39:13;;;;;;;;;;;;;;;23.27;56.28;99544.34;3483918;28;19932;-44
2021/05/27 07:40:54;;;;;;;;;;;;;;;23.16;57.16;99549.16;3483333;28;19945;-46
2021/05/27 07:42:36;;;;;;;;;;;;;;;23.13;56.85;99550.16;3483841;28;19929;-46
2021/05/27 07:44:17;;;;;;;;;;;;;;;23.27;56.79;99551.41;3482709;28;20429;-45
2021/05/27 07:45:59;;;;;;;;;;;;;;;23.32;56.34;99555.59;3483092;28;20033;-45
2021/05/27 07:47:40;;;;;;;;;;;;;;;23.42;56.58;99547.28;3470007;28;20418;-46
2021/05/27 07:49:22;;;;;;;;;;;;;;;23.44;57.26;99548.94;3479649;28;20416;-44
2021/05/27 07:51:05;;;;;;;;;;;;;;;23.34;55.26;99552.88;3484145;28;20310;-46
2021/05/27 07:52:46;;;;;;;;;;;;;;;23.15;56.32;99544.81;3482048;28;19998;-45
2021/05/27 07:54:28;;;;;;;;;;;;;;;23.08;56.78;99541.53;3483405;28;19983;-45
2021/05/27 07:56:11;;;;;;;;;;;;;;;23.08;57.73;99530.94;3483020;28;19978;-46
2021/05/27 07:57:52;;;;;;;;;;;;;;;23.12;57.19;99537.81;3483536;28;19929;-46
2021/05/27 07:59:33;;;;;;;;;;;;;;;23.04;56.38;99534.66;3484045;28;19929;-45
2021/05/27 08:01:15;;;;;;;;;;;;;;;23.09;57.53;99530.00;3482648;28;19935;-46
2021/05/27 08:02:56;;;;;;;;;;;;;;;23.21;57.15;99530.47;3483960;28;20397;-45
2021/05/27 08:04:41;;;;;;;;;;;;;;;23.35;57.66;99528.13;3481700;28;19976;-46
2021/05/27 08:06:22;;;;;;;;;;;;;;;23.45;54.92;99525.97;3483944;28;19959;-45
2021/05/27 08:08:04;;;;;;;;;;;;;;;23.51;56.13;99523.06;3484209;28;20402;-45
2021/05/27 08:09:47;;;;;;;;;;;;;;;23.63;55.41;99527.00;3482699;28;20313;-49
2021/05/27 08:11:28;;;;;;;;;;;;;;;23.75;55.56;99525.59;3483921;28;19928;-45
2021/05/27 08:13:09;;;;;;;;;;;;;;;23.88;54.04;99526.78;3481326;28;19929;-45
2021/05/27 08:14:50;;;;;;;;;;;;;;;23.99;53.87;99519.22;3484265;28;20014;-44
2021/05/27 08:16:32;;;;;;;;;;;;;;;24.08;54.03;99518.88;3482861;28;19928;-45
2021/05/27 08:18:14;;;;;;;;;;;;;;;24.09;54.69;99523.22;3482696;28;19928;-46
2021/05/27 08:19:55;;;;;;;;;;;;;;;23.82;54.18;99519.09;3483419;28;19929;-44
2021/05/27 08:21:36;;;;;;;;;;;;;;;23.63;55.06;99522.53;3482527;28;19971;-44
2021/05/27 08:23:17;;;;;;;;;;;;;;;23.46;55.00;99517.94;3484003;28;20432;-44
2021/05/27 08:24:58;;;;;;;;;;;;;;;23.36;56.27;99521.03;3482713;28;20036;-45
2021/05/27 08:26:40;;;;;;;;;;;;;;;23.36;57.12;99521.03;3483838;28;19928;-45
2021/05/27 08:28:21;;;;;;;;;;;;;;;23.48;56.43;99512.59;3483179;28;20017;-46
2021/05/27 08:30:03;;;;;;;;;;;;;;;23.74;57.02;99514.13;3483617;28;19936;-46
2021/05/27 08:31:45;;;;;;;;;;;;;;;23.94;56.57;99507.97;3483078;28;19968;-46
2021/05/27 08:33:26;;;;;;;;;;;;;;;24.04;54.49;99516.38;3482329;28;19940;-46
2021/05/27 08:35:08;;;;;;;;;;;;;;;24.08;55.13;99518.00;3483569;28;19983;-46
2021/05/27 08:36:49;;;;;;;;;;;;;;;24.15;55.76;99513.28;3482775;28;20020;-45
2021/05/27 08:38:30;;;;;;;;;;;;;;;24.22;54.78;99517.38;3483663;28;19982;-46
2021/05/27 08:40:12;;;;;;;;;;;;;;;24.16;54.95;99521.16;3482203;28;19933;-46
2021/05/27 08:41:53;;;;;;;;;;;;;;;24.16;55.26;99517.66;3483609;28;19936;-46
2021/05/27 08:43:34;;;;;;;;;;;;;;;24.12;53.60;99511.66;3483220;28;19933;-46
2021/05/27 08:45:16;;;;;;;;;;;;;;;24.02;54.10;99515.59;3482353;28;20315;-44
2021/05/27 08:46:58;;;;;;;;;;;;;;;24.11;55.63;99509.06;3483635;28;19928;-45
2021/05/27 08:48:40;;;;;;;;;;;;;;;24.30;55.51;99514.41;3482549;28;19928;-45
2021/05/27 08:50:29;;;;;;;;;;;;;;;24.41;53.71;99518.25;3484386;28;19960;-46
2021/05/27 08:52:10;;;;;;;;;;;;;;;24.42;54.41;99522.66;3482496;28;20310;-44
2021/05/27 08:53:52;;;;;;;;;;;;;;;24.26;53.63;99524.28;3482612;28;19928;-44
2021/05/27 08:55:34;;;;;;;;;;;;;;;24.11;53.54;99519.66;3483629;28;20314;-45
2021/05/27 08:57:15;;;;;;;;;;;;;;;23.94;53.37;99523.00;3482056;28;20007;-46
2021/05/27 08:58:56;;;;;;;;;;;;;;;23.80;54.75;99534.19;3483329;28;19928;-46
2021/05/27 09:00:37;;;;;;;;;;;;;;;23.55;55.74;99531.75;3482061;28;19929;-46